Time;durP1;ratioP1;P1;durP2;ratioP2;P2;SDS_P1;SDS_P2;PMS_P1;PMS_P2;Temp;Humidity;BMP_temperature;BMP_pressure;BME280_temperature;BME280_humidity;BME280_pressure;Samples;Min_cycle;Max_cycle;Signal;HPM_P1;HPM_P2
2024/02/10 00:02:10;;;;;;;2.00;1.63;;;11.60;97.00;;;;;;5047560;28;20041;-67
2024/02/10 00:04:38;;;;;;;3.25;1.33;;;11.60;97.00;;;;;;5045337;28;20044;-68
2024/02/10 00:07:07;;;;;;;2.63;1.40;;;11.60;97.00;;;;;;5046755;28;20083;-67
2024/02/10 00:09:35;;;;;;;2.60;1.70;;;11.50;96.90;;;;;;5046344;28;20020;-67
2024/02/10 00:12:01;;;;;;;2.40;1.42;;;11.50;97.00;;;;;;5047721;28;20536;-68
2024/02/10 00:14:27;;;;;;;2.97;1.60;;;11.60;97.00;;;;;;5048547;28;20036;-68
2024/02/10 00:16:53;;;;;;;2.75;1.60;;;11.60;97.00;;;;;;5049064;28;20129;-68
2024/02/10 00:19:20;;;;;;;2.38;1.45;;;11.60;97.10;;;;;;5048829;28;20013;-68
2024/02/10 00:21:46;;;;;;;1.48;1.20;;;11.60;97.00;;;;;;5048982;28;20115;-69
2024/02/10 00:24:12;;;;;;;1.88;1.45;;;11.60;97.10;;;;;;5044861;28;20146;-69
2024/02/10 00:26:38;;;;;;;1.48;1.20;;;11.60;97.10;;;;;;5047606;28;20025;-69
2024/02/10 00:29:04;;;;;;;2.15;1.23;;;11.60;97.10;;;;;;5049515;28;20024;-68
2024/02/10 00:31:30;;;;;;;1.52;1.42;;;11.60;97.10;;;;;;5048577;28;20166;-68
2024/02/10 00:33:57;;;;;;;3.35;1.50;;;11.60;97.10;;;;;;5048736;28;20096;-68
2024/02/10 00:36:23;;;;;;;1.92;1.27;;;11.60;97.10;;;;;;5045810;28;20017;-67
2024/02/10 00:38:49;;;;;;;2.17;1.30;;;11.60;97.20;;;;;;5044848;28;20142;-67
2024/02/10 00:41:16;;;;;;;1.67;1.30;;;11.60;97.20;;;;;;5047014;28;20507;-66
2024/02/10 00:43:42;;;;;;;1.90;1.40;;;11.60;97.20;;;;;;5048725;28;20504;-67
2024/02/10 00:46:13;;;;;;;1.90;1.40;;;11.60;97.20;;;;;;5047763;28;20052;-68
2024/02/10 00:48:38;;;;;;;3.40;1.48;;;11.60;97.20;;;;;;5047303;28;20043;-67
2024/02/10 00:51:05;;;;;;;1.75;1.17;;;11.60;97.20;;;;;;5048859;28;20646;-67
2024/02/10 00:53:41;;;;;;;2.15;1.10;;;11.60;97.10;;;;;;5048085;28;20515;-67
2024/02/10 00:56:10;;;;;;;2.28;1.30;;;11.60;97.10;;;;;;5044953;28;20033;-68
2024/02/10 00:58:40;;;;;;;2.72;1.40;;;11.60;97.10;;;;;;5046362;28;21035;-68
2024/02/10 01:01:10;;;;;;;1.98;1.30;;;11.60;97.10;;;;;;5046496;28;20016;-69
2024/02/10 01:03:37;;;;;;;2.47;1.58;;;11.70;97.10;;;;;;5046524;28;20033;-69
2024/02/10 01:06:05;;;;;;;2.42;1.40;;;11.60;97.10;;;;;;5045966;28;20013;-69
2024/02/10 01:08:30;;;;;;;2.05;1.45;;;11.60;97.10;;;;;;5044210;28;20032;-69
2024/02/10 01:10:57;;;;;;;2.40;1.50;;;11.60;97.20;;;;;;5043542;28;20029;-69
2024/02/10 01:13:25;;;;;;;2.35;1.70;;;11.60;97.10;;;;;;5045154;28;20029;-68
2024/02/10 01:15:54;;;;;;;2.70;1.52;;;11.70;97.20;;;;;;5044008;28;20026;-67
2024/02/10 01:18:20;;;;;;;1.88;1.48;;;11.70;97.30;;;;;;5047330;28;20064;-67
2024/02/10 01:20:46;;;;;;;1.85;1.42;;;11.70;97.20;;;;;;5049152;28;20478;-67
2024/02/10 01:23:11;;;;;;;2.67;1.50;;;11.70;97.20;;;;;;5047332;28;20033;-68
2024/02/10 01:25:37;;;;;;;1.35;1.20;;;11.70;97.20;;;;;;5047125;28;20021;-68
2024/02/10 01:28:03;;;;;;;2.72;1.52;;;11.70;97.20;;;;;;5045803;28;20029;-68
2024/02/10 01:30:28;;;;;;;2.22;1.42;;;11.70;97.30;;;;;;5047092;28;20483;-68
2024/02/10 01:32:57;;;;;;;2.70;1.60;;;11.70;97.30;;;;;;5047069;28;20017;-68
2024/02/10 01:35:23;;;;;;;1.85;1.58;;;11.70;97.30;;;;;;5044010;28;20039;-68
2024/02/10 01:37:49;;;;;;;3.70;1.63;;;11.70;97.30;;;;;;5040821;28;20021;-68
2024/02/10 01:40:16;;;;;;;2.70;1.52;;;11.70;97.30;;;;;;5043545;28;20384;-68
2024/02/10 01:42:44;;;;;;;2.85;1.67;;;11.70;97.20;;;;;;5046506;28;20017;-68
2024/02/10 01:45:11;;;;;;;2.55;1.50;;;11.60;97.20;;;;;;5046888;28;20013;-68
2024/02/10 01:47:42;;;;;;;4.10;1.40;;;11.70;97.30;;;;;;5046034;28;20021;-68
2024/02/10 01:50:09;;;;;;;1.88;1.60;;;11.60;97.30;;;;;;5046855;28;20079;-67
2024/02/10 01:52:39;;;;;;;1.67;1.38;;;11.60;97.40;;;;;;5044862;28;20021;-67
2024/02/10 01:55:05;;;;;;;1.70;1.60;;;11.70;97.40;;;;;;5046853;28;20017;-67
2024/02/10 01:57:33;;;;;;;1.50;1.30;;;11.60;97.40;;;;;;5045319;28;20024;-67
2024/02/10 02:00:05;;;;;;;3.33;1.60;;;11.60;97.40;;;;;;5050753;28;20491;-67
2024/02/10 02:02:32;;;;;;;3.00;1.80;;;11.60;97.50;;;;;;5043248;28;20480;-67
2024/02/10 02:04:59;;;;;;;2.25;1.40;;;11.60;97.60;;;;;;5046860;28;20020;-67
2024/02/10 02:07:30;;;;;;;1.75;1.48;;;11.50;97.60;;;;;;5045416;28;20021;-67
2024/02/10 02:09:59;;;;;;;2.20;1.60;;;11.50;97.60;;;;;;5046776;28;20499;-67
2024/02/10 02:12:25;;;;;;;2.45;1.60;;;11.50;97.70;;;;;;5044931;28;20020;-68
2024/02/10 02:14:51;;;;;;;2.30;1.58;;;11.50;97.80;;;;;;5044968;28;20037;-68
2024/02/10 02:17:17;;;;;;;1.73;1.40;;;11.50;97.80;;;;;;5045427;28;20028;-68
2024/02/10 02:19:43;;;;;;;1.65;1.40;;;11.50;97.80;;;;;;5045208;28;20025;-68
2024/02/10 02:22:09;;;;;;;1.48;1.30;;;11.50;97.90;;;;;;5046823;28;20031;-68
2024/02/10 02:24:35;;;;;;;2.33;1.35;;;11.50;97.80;;;;;;5046500;28;20021;-69
2024/02/10 02:27:02;;;;;;;1.90;1.10;;;11.50;97.80;;;;;;5046520;28;20392;-69
2024/02/10 02:29:28;;;;;;;2.33;1.58;;;11.50;97.70;;;;;;5044166;28;20025;-69
2024/02/10 02:31:58;;;;;;;1.83;1.30;;;11.50;97.80;;;;;;5047946;28;20361;-68
2024/02/10 02:34:25;;;;;;;1.27;1.17;;;11.50;97.90;;;;;;5046554;28;20025;-68
2024/02/10 02:36:52;;;;;;;2.65;2.05;;;11.50;97.90;;;;;;5051896;28;20032;-68
2024/02/10 02:39:18;;;;;;;1.58;1.20;;;11.50;98.00;;;;;;5045124;28;20060;-68
2024/02/10 02:41:44;;;;;;;1.33;1.10;;;11.50;97.90;;;;;;5047905;28;20071;-68
2024/02/10 02:44:14;;;;;;;1.17;1.08;;;11.60;97.90;;;;;;5045640;28;20029;-68
2024/02/10 02:46:43;;;;;;;1.70;1.17;;;11.60;97.80;;;;;;5045542;28;20096;-68
2024/02/10 02:49:12;;;;;;;2.03;1.40;;;11.50;97.90;;;;;;5046311;28;20625;-67
2024/02/10 02:51:37;;;;;;;1.52;1.30;;;11.50;97.90;;;;;;5044044;28;20074;-68
2024/02/10 02:54:04;;;;;;;1.83;1.27;;;11.40;98.00;;;;;;5044640;28;20430;-67
2024/02/10 02:56:30;;;;;;;1.73;1.20;;;11.50;98.10;;;;;;5045164;28;20037;-67
2024/02/10 02:58:55;;;;;;;1.38;1.13;;;11.40;98.10;;;;;;5045904;28;20075;-67
2024/02/10 03:01:22;;;;;;;1.45;1.33;;;11.40;98.20;;;;;;5046435;28;20017;-67
2024/02/10 03:03:50;;;;;;;1.30;1.20;;;11.40;98.20;;;;;;5044925;28;20552;-67
2024/02/10 03:06:18;;;;;;;1.15;1.05;;;11.40;98.30;;;;;;5044312;28;20050;-67
2024/02/10 03:08:45;;;;;;;1.83;1.30;;;11.40;98.30;;;;;;5044402;28;20021;-67
2024/02/10 03:11:17;;;;;;;1.85;1.10;;;11.50;98.30;;;;;;5045941;28;20053;-67
2024/02/10 03:13:46;;;;;;;;;;;11.50;98.20;;;;;;5046786;28;20115;-67
2024/02/10 03:16:13;;;;;;;2.42;1.40;;;11.50;98.10;;;;;;5052183;28;20437;-67
2024/02/10 03:18:41;;;;;;;1.65;1.30;;;11.50;98.10;;;;;;5051149;28;20060;-67
2024/02/10 03:21:09;;;;;;;2.97;1.40;;;11.50;98.10;;;;;;5041810;28;20075;-67
2024/02/10 03:23:34;;;;;;;2.05;1.50;;;11.50;98.20;;;;;;5049084;28;20024;-68
2024/02/10 03:26:03;;;;;;;1.83;1.50;;;11.50;98.20;;;;;;5048423;28;20033;-68
2024/02/10 03:28:28;;;;;;;1.95;1.40;;;11.50;98.20;;;;;;5048525;28;20025;-69
2024/02/10 03:30:54;;;;;;;1.50;1.30;;;11.60;98.20;;;;;;5049921;28;20021;-68
2024/02/10 03:33:19;;;;;;;2.22;1.50;;;11.60;98.20;;;;;;5051323;28;20029;-68
2024/02/10 03:35:45;;;;;;;2.33;1.20;;;11.50;98.20;;;;;;5049001;28;20037;-68
2024/02/10 03:38:11;;;;;;;2.03;1.30;;;11.50;98.20;;;;;;5046732;28;20094;-68
2024/02/10 03:40:36;;;;;;;2.30;1.58;;;11.50;98.30;;;;;;5048344;28;20029;-68
2024/02/10 03:43:02;;;;;;;1.45;1.30;;;11.50;98.30;;;;;;5049033;28;20067;-67
2024/02/10 03:45:30;;;;;;;2.03;1.17;;;11.50;98.40;;;;;;5049126;28;20040;-68
2024/02/10 03:48:04;;;;;;;1.42;1.00;;;11.50;98.40;;;;;;5049169;28;20048;-68
2024/02/10 03:50:29;;;;;;;1.80;1.00;;;11.50;98.40;;;;;;5049572;28;20021;-68
2024/02/10 03:52:58;;;;;;;3.20;1.50;;;11.50;98.50;;;;;;5048485;28;20059;-68
2024/02/10 03:55:24;;;;;;;1.30;1.15;;;11.50;98.50;;;;;;5045829;28;20036;-66
2024/02/10 03:57:53;;;;;;;1.35;1.00;;;11.50;98.50;;;;;;5048359;28;20025;-67
2024/02/10 04:00:24;;;;;;;1.40;1.30;;;11.50;98.50;;;;;;5048994;28;20021;-67
2024/02/10 04:02:49;;;;;;;1.45;1.35;;;11.50;98.50;;;;;;5047782;28;20032;-67
2024/02/10 04:05:15;;;;;;;1.85;1.38;;;11.50;98.50;;;;;;5049096;28;20025;-67
2024/02/10 04:07:40;;;;;;;2.17;1.35;;;11.50;98.40;;;;;;5048481;28;20021;-68
2024/02/10 04:10:12;;;;;;;2.15;1.33;;;11.50;98.40;;;;;;5049101;28;20500;-68
2024/02/10 04:12:38;;;;;;;2.17;1.30;;;11.40;98.50;;;;;;5048568;28;20055;-68
2024/02/10 04:15:08;;;;;;;2.50;1.25;;;11.40;98.60;;;;;;5047157;28;20020;-67
2024/02/10 04:17:33;;;;;;;1.70;1.30;;;11.30;98.70;;;;;;5047347;28;20059;-67
2024/02/10 04:20:00;;;;;;;1.77;1.40;;;11.40;98.80;;;;;;5048613;28;20588;-67
2024/02/10 04:22:28;;;;;;;2.15;1.40;;;11.30;98.80;;;;;;5049059;28;20029;-67
2024/02/10 04:24:57;;;;;;;2.50;1.60;;;11.40;98.80;;;;;;5048721;28;20560;-67
2024/02/10 04:27:23;;;;;;;1.85;1.30;;;11.40;98.90;;;;;;5048683;28;20028;-67
2024/02/10 04:29:49;;;;;;;1.52;1.20;;;11.40;98.80;;;;;;5048349;28;20096;-67
2024/02/10 04:32:14;;;;;;;1.30;1.20;;;11.40;98.90;;;;;;5046888;28;20139;-67
2024/02/10 04:34:43;;;;;;;1.40;1.27;;;11.30;98.90;;;;;;5047399;28;20032;-67
2024/02/10 04:37:10;;;;;;;1.35;1.25;;;11.30;98.90;;;;;;5047019;28;20383;-67
2024/02/10 04:39:37;;;;;;;1.30;1.20;;;11.40;98.90;;;;;;5048396;28;20027;-67
2024/02/10 04:42:05;;;;;;;1.80;1.15;;;11.40;98.90;;;;;;5046973;28;20140;-67
2024/02/10 04:44:30;;;;;;;2.20;1.13;;;11.40;98.90;;;;;;5046739;28;20099;-68
2024/02/10 04:46:56;;;;;;;1.52;1.10;;;11.40;98.90;;;;;;5047752;28;20096;-67
2024/02/10 04:49:26;;;;;;;1.98;1.30;;;11.40;98.80;;;;;;5047434;28;20020;-68
2024/02/10 04:51:52;;;;;;;1.73;1.10;;;11.40;98.90;;;;;;5044924;28;20032;-67
2024/02/10 04:54:17;;;;;;;1.70;1.30;;;11.40;98.90;;;;;;5048805;28;20037;-67
2024/02/10 04:56:43;;;;;;;1.10;0.98;;;11.40;98.90;;;;;;5046920;28;20103;-67
2024/02/10 04:59:12;;;;;;;1.20;1.10;;;11.40;98.80;;;;;;5045352;28;20032;-67
2024/02/10 05:01:38;;;;;;;1.30;0.90;;;11.40;98.90;;;;;;5046696;28;20024;-67
2024/02/10 05:04:05;;;;;;;1.60;1.20;;;11.40;98.80;;;;;;5048756;28;21480;-67
2024/02/10 05:06:30;;;;;;;1.15;1.05;;;11.30;98.90;;;;;;5046571;28;20510;-68
2024/02/10 05:08:58;;;;;;;1.33;1.23;;;11.30;98.90;;;;;;5049223;28;20056;-67
2024/02/10 05:11:24;;;;;;;1.27;1.10;;;11.30;98.90;;;;;;5046775;28;20088;-68
2024/02/10 05:13:49;;;;;;;1.63;1.20;;;11.30;98.90;;;;;;5045303;28;20025;-69
2024/02/10 05:16:15;;;;;;;1.40;1.10;;;11.30;99.00;;;;;;5048915;28;20492;-68
2024/02/10 05:18:40;;;;;;;1.63;1.30;;;11.30;99.10;;;;;;5044783;28;20498;-67
2024/02/10 05:21:06;;;;;;;1.50;1.30;;;11.30;99.10;;;;;;5047448;28;20561;-67
2024/02/10 05:23:33;;;;;;;1.50;1.35;;;11.20;99.10;;;;;;5046432;28;20029;-69
2024/02/10 05:26:00;;;;;;;2.30;1.30;;;11.20;99.20;;;;;;5042932;28;20021;-69
2024/02/10 05:28:26;;;;;;;1.35;1.20;;;11.20;99.20;;;;;;5046379;28;20022;-67
2024/02/10 05:30:57;;;;;;;2.25;1.40;;;11.20;99.30;;;;;;5046742;28;20057;-68
2024/02/10 05:33:23;;;;;;;2.13;1.47;;;11.20;99.20;;;;;;5047437;28;20021;-67
2024/02/10 05:35:49;;;;;;;2.97;1.20;;;11.20;99.20;;;;;;5045121;28;20286;-67
2024/02/10 05:38:16;;;;;;;1.30;1.10;;;11.20;99.20;;;;;;5046778;28;20033;-67
2024/02/10 05:40:42;;;;;;;1.55;1.20;;;11.20;99.10;;;;;;5046919;28;20031;-67
2024/02/10 05:43:08;;;;;;;1.70;1.25;;;11.20;99.10;;;;;;5044591;28;20112;-67
2024/02/10 05:45:34;;;;;;;1.75;1.38;;;11.20;99.10;;;;;;5044272;28;20029;-67
2024/02/10 05:48:00;;;;;;;1.40;1.30;;;11.20;99.10;;;;;;5045323;28;20267;-67
2024/02/10 05:50:27;;;;;;;1.30;1.20;;;11.20;99.10;;;;;;5045526;28;20017;-68
2024/02/10 05:52:53;;;;;;;2.10;1.45;;;11.20;99.10;;;;;;5046916;28;20020;-67
2024/02/10 05:55:25;;;;;;;1.88;1.20;;;11.20;99.00;;;;;;5047468;28;20029;-68
2024/02/10 05:58:04;;;;;;;1.88;1.45;;;11.20;99.10;;;;;;5044182;28;20021;-66
2024/02/10 06:00:30;;;;;;;2.60;1.70;;;11.20;99.00;;;;;;5045924;28;20021;-67
2024/02/10 06:02:55;;;;;;;2.22;1.67;;;11.20;99.00;;;;;;5045551;28;20017;-67
2024/02/10 06:05:22;;;;;;;2.05;1.42;;;11.20;99.00;;;;;;5048479;28;20360;-68
2024/02/10 06:07:48;;;;;;;2.42;1.45;;;11.20;99.10;;;;;;5043085;28;20018;-68
2024/02/10 06:10:15;;;;;;;2.28;1.45;;;11.20;99.10;;;;;;5049626;28;20025;-67
2024/02/10 06:12:45;;;;;;;1.90;1.70;;;11.10;99.00;;;;;;5045725;28;20025;-67
2024/02/10 06:15:11;;;;;;;1.58;1.45;;;11.10;99.10;;;;;;5046916;28;20843;-67
2024/02/10 06:17:38;;;;;;;2.25;1.25;;;11.10;99.30;;;;;;5046371;28;20056;-67
2024/02/10 06:20:14;;;;;;;2.50;1.60;;;11.10;99.30;;;;;;5044367;28;20458;-67
2024/02/10 06:22:47;;;;;;;2.08;1.40;;;11.10;99.30;;;;;;5045242;28;20025;-68
2024/02/10 06:25:22;;;;;;;1.67;1.58;;;11.10;99.60;;;;;;5045166;28;20080;-69
2024/02/10 06:27:52;;;;;;;2.00;1.63;;;11.10;99.40;;;;;;5046226;28;20025;-66
2024/02/10 06:30:19;;;;;;;2.28;1.67;;;11.10;99.30;;;;;;5046610;28;20028;-67
2024/02/10 06:32:45;;;;;;;2.00;1.70;;;11.10;99.30;;;;;;5045566;28;20027;-67
2024/02/10 06:35:12;;;;;;;2.33;1.80;;;11.10;99.20;;;;;;5045330;28;20029;-68
2024/02/10 06:37:39;;;;;;;2.28;1.90;;;11.10;99.40;;;;;;5044873;28;20439;-68
2024/02/10 06:40:13;;;;;;;3.10;1.92;;;11.20;99.20;;;;;;5050568;28;20044;-68
2024/02/10 06:42:46;;;;;;;2.45;1.70;;;11.10;99.10;;;;;;5045354;28;20036;-68
2024/02/10 06:45:14;;;;;;;1.75;1.27;;;11.10;99.10;;;;;;5044656;28;24290;-68
2024/02/10 06:47:44;;;;;;;2.08;1.70;;;11.10;99.20;;;;;;5047721;28;20044;-68
2024/02/10 06:50:13;;;;;;;1.60;1.40;;;11.10;99.10;;;;;;5049292;28;20033;-68
2024/02/10 06:52:39;;;;;;;3.75;1.70;;;11.10;99.10;;;;;;5049724;28;20021;-68
2024/02/10 06:55:07;;;;;;;2.10;1.70;;;11.10;99.20;;;;;;5050614;28;20215;-67
2024/02/10 06:57:32;;;;;;;2.35;1.60;;;11.10;99.20;;;;;;5048679;28;20021;-68
2024/02/10 06:59:58;;;;;;;2.05;1.70;;;11.10;99.30;;;;;;5051205;28;20483;-68
2024/02/10 07:02:24;;;;;;;2.67;1.50;;;11.10;99.30;;;;;;5050600;28;20414;-67
2024/02/10 07:04:52;;;;;;;2.58;1.60;;;11.10;99.20;;;;;;5047450;28;20024;-67
2024/02/10 07:07:21;;;;;;;2.13;1.65;;;11.10;99.20;;;;;;5048017;28;20441;-67
2024/02/10 07:09:47;;;;;;;2.08;1.60;;;11.10;99.20;;;;;;5049332;28;20029;-67
2024/02/10 07:12:12;;;;;;;2.20;1.40;;;11.10;99.20;;;;;;5043537;28;20025;-68
2024/02/10 07:14:38;;;;;;;2.40;1.67;;;11.10;99.30;;;;;;5050007;28;20033;-67
2024/02/10 07:17:04;;;;;;;3.72;2.30;;;11.10;99.20;;;;;;5046850;28;20116;-67
2024/02/10 07:19:35;;;;;;;3.05;2.20;;;11.10;99.20;;;;;;5049469;28;20105;-68
2024/02/10 07:22:01;;;;;;;2.60;1.70;;;11.10;99.30;;;;;;5050776;28;20032;-67
2024/02/10 07:24:26;;;;;;;2.33;1.85;;;11.20;99.20;;;;;;5047881;28;20021;-67
2024/02/10 07:26:56;;;;;;;1.40;1.13;;;11.20;99.20;;;;;;5047511;28;20032;-68
2024/02/10 07:29:23;;;;;;;1.40;1.20;;;11.20;99.00;;;;;;5047733;28;20017;-66
2024/02/10 07:31:49;;;;;;;3.92;2.42;;;11.20;99.00;;;;;;5049603;28;20032;-67
2024/02/10 07:34:14;;;;;;;2.90;1.98;;;11.20;99.00;;;;;;5044483;28;20037;-69
2024/02/10 07:36:40;;;;;;;2.88;1.70;;;11.20;99.00;;;;;;5049061;28;20028;-69
2024/02/10 07:39:06;;;;;;;2.90;2.22;;;11.20;99.00;;;;;;5050531;28;20017;-68
2024/02/10 07:41:35;;;;;;;2.10;1.90;;;11.20;99.00;;;;;;5047806;28;20401;-68
2024/02/10 07:44:03;;;;;;;2.35;1.80;;;11.20;99.00;;;;;;5047365;28;20036;-67
2024/02/10 07:46:32;;;;;;;2.50;1.73;;;11.20;98.90;;;;;;5049075;28;20048;-67
2024/02/10 07:49:01;;;;;;;1.63;1.40;;;11.20;98.90;;;;;;5050790;28;20475;-68
2024/02/10 07:51:29;;;;;;;2.10;1.70;;;11.30;98.90;;;;;;5050945;28;20475;-68
2024/02/10 07:53:56;;;;;;;2.67;1.70;;;11.20;98.80;;;;;;5044657;28;20479;-69
2024/02/10 07:56:22;;;;;;;2.17;1.65;;;11.30;98.80;;;;;;5045743;28;20017;-68
2024/02/10 07:58:48;;;;;;;1.95;1.55;;;11.30;98.80;;;;;;5045157;28;20173;-69
2024/02/10 08:01:14;;;;;;;2.40;1.60;;;11.30;98.70;;;;;;5045788;28;20029;-69
2024/02/10 08:03:41;;;;;;;2.58;1.80;;;11.20;98.70;;;;;;5048933;28;20108;-68
2024/02/10 08:06:07;;;;;;;2.30;1.77;;;11.20;98.80;;;;;;5045492;28;20044;-68
2024/02/10 08:08:33;;;;;;;4.07;2.08;;;11.20;98.90;;;;;;5047667;28;20455;-68
2024/02/10 08:10:59;;;;;;;1.70;1.60;;;11.20;98.80;;;;;;5047330;28;20028;-67
2024/02/10 08:13:25;;;;;;;2.58;1.67;;;11.20;98.90;;;;;;5047660;28;20134;-68
2024/02/10 08:15:52;;;;;;;4.00;2.15;;;11.20;98.90;;;;;;5047369;28;20032;-67
2024/02/10 08:18:18;;;;;;;3.05;2.15;;;11.20;99.00;;;;;;5045080;28;20111;-68
2024/02/10 08:20:44;;;;;;;2.70;2.00;;;11.20;98.90;;;;;;5047748;28;20051;-68
2024/02/10 08:23:12;;;;;;;4.55;2.30;;;11.10;99.00;;;;;;5047981;28;20480;-68
2024/02/10 08:25:38;;;;;;;3.90;1.77;;;11.20;99.00;;;;;;5046532;28;20043;-68
2024/02/10 08:28:06;;;;;;;4.25;2.75;;;11.20;98.90;;;;;;5047595;28;20100;-68
2024/02/10 08:30:32;;;;;;;1.90;1.70;;;11.20;98.90;;;;;;5047311;28;20028;-68
2024/02/10 08:33:00;;;;;;;2.67;1.70;;;11.30;98.80;;;;;;5045810;28;20063;-68
2024/02/10 08:35:28;;;;;;;2.40;1.90;;;11.40;98.80;;;;;;5046464;28;20653;-69
2024/02/10 08:37:55;;;;;;;2.55;2.03;;;11.40;98.70;;;;;;5041877;28;20480;-68
2024/02/10 08:40:20;;;;;;;4.72;2.42;;;11.40;98.60;;;;;;5046070;28;20484;-68
2024/02/10 08:42:52;;;;;;;3.78;2.42;;;11.40;98.60;;;;;;5044275;28;20094;-69
2024/02/10 08:45:18;;;;;;;3.58;1.70;;;11.40;98.50;;;;;;5044841;28;20027;-68
2024/02/10 08:47:45;;;;;;;2.92;2.00;;;11.40;98.50;;;;;;5045702;28;20021;-69
2024/02/10 08:50:11;;;;;;;2.33;1.75;;;11.40;98.40;;;;;;5046486;28;20067;-70
2024/02/10 08:52:37;;;;;;;2.50;1.90;;;11.50;98.40;;;;;;5042231;28;20096;-69
2024/02/10 08:55:05;;;;;;;2.83;1.70;;;11.40;98.40;;;;;;5045866;28;20103;-68
2024/02/10 08:57:31;;;;;;;3.13;1.58;;;11.40;98.40;;;;;;5047775;28;20112;-69
2024/02/10 08:59:56;;;;;;;2.97;1.85;;;11.40;98.30;;;;;;5047578;28;20121;-69
2024/02/10 09:02:22;;;;;;;2.28;1.88;;;11.40;98.40;;;;;;5045633;28;20139;-69
2024/02/10 09:04:49;;;;;;;4.28;2.10;;;11.40;98.50;;;;;;5043181;28;20112;-68
2024/02/10 09:07:18;;;;;;;2.92;1.92;;;11.50;98.40;;;;;;5044959;28;20013;-68
2024/02/10 09:09:45;;;;;;;2.03;1.65;;;11.60;98.30;;;;;;5043567;28;20114;-69
2024/02/10 09:12:12;;;;;;;2.80;2.28;;;11.60;98.20;;;;;;5045862;28;20019;-69
2024/02/10 09:14:38;;;;;;;2.30;1.73;;;11.60;98.20;;;;;;5046589;28;20040;-68
2024/02/10 09:17:03;;;;;;;2.60;2.00;;;11.60;97.90;;;;;;5045303;28;20025;-69
2024/02/10 09:19:29;;;;;;;2.10;1.70;;;11.60;98.10;;;;;;5044521;28;20032;-69
2024/02/10 09:21:55;;;;;;;2.33;1.80;;;11.70;98.00;;;;;;5047549;28;20033;-68
2024/02/10 09:24:25;;;;;;;2.92;1.70;;;11.70;98.00;;;;;;5043146;28;20044;-68
2024/02/10 09:26:52;;;;;;;2.13;1.73;;;11.70;98.00;;;;;;5042948;28;20674;-68
2024/02/10 09:29:18;;;;;;;2.60;1.80;;;11.80;97.90;;;;;;5047122;28;20017;-70
2024/02/10 09:31:49;;;;;;;3.42;2.17;;;11.80;97.80;;;;;;5044476;28;20021;-69
2024/02/10 09:34:15;;;;;;;3.03;1.98;;;11.80;97.90;;;;;;5048413;28;20041;-69
2024/02/10 09:36:44;;;;;;;2.40;1.75;;;11.80;97.80;;;;;;5044354;28;20104;-69
2024/02/10 09:39:12;;;;;;;2.70;2.20;;;11.80;97.90;;;;;;5042900;28;20037;-70
2024/02/10 09:41:38;;;;;;;3.10;2.50;;;11.90;97.80;;;;;;5042650;28;20032;-70
2024/02/10 09:44:10;;;;;;;3.63;2.20;;;11.80;97.70;;;;;;5044836;28;20037;-68
2024/02/10 09:46:36;;;;;;;3.08;2.20;;;11.90;97.80;;;;;;5041544;28;20022;-69
2024/02/10 09:49:07;;;;;;;2.75;1.98;;;11.90;97.80;;;;;;5042908;28;20052;-69
2024/02/10 09:51:37;;;;;;;3.60;2.20;;;12.00;97.70;;;;;;5043005;28;20033;-68
2024/02/10 09:54:05;;;;;;;2.67;2.05;;;12.00;97.50;;;;;;5045066;28;20268;-70
2024/02/10 09:56:33;;;;;;;2.75;1.95;;;12.00;97.50;;;;;;5042625;28;20033;-70
2024/02/10 09:58:59;;;;;;;2.80;2.10;;;12.20;97.50;;;;;;5042733;28;20071;-70
2024/02/10 10:01:32;;;;;;;3.90;2.30;;;12.20;97.30;;;;;;5040575;28;20103;-70
2024/02/10 10:03:59;;;;;;;3.67;2.78;;;12.20;97.50;;;;;;5043632;28;20029;-69
2024/02/10 10:06:25;;;;;;;4.57;3.20;;;12.20;97.10;;;;;;5043369;28;20020;-70
2024/02/10 10:08:51;;;;;;;3.50;2.70;;;12.10;97.10;;;;;;5044899;28;20218;-68
2024/02/10 10:11:16;;;;;;;3.70;2.67;;;12.20;97.20;;;;;;5045280;28;20025;-68
2024/02/10 10:13:42;;;;;;;5.38;2.78;;;12.20;97.20;;;;;;5043768;28;20036;-68
2024/02/10 10:16:09;;;;;;;3.42;2.42;;;12.30;97.10;;;;;;5042549;28;20104;-68
2024/02/10 10:18:35;;;;;;;4.90;2.95;;;12.40;96.90;;;;;;5043038;28;20460;-69
2024/02/10 10:21:04;;;;;;;3.33;2.40;;;12.40;96.90;;;;;;5040715;28;20031;-69
2024/02/10 10:23:34;;;;;;;3.50;2.50;;;12.50;96.80;;;;;;5045788;28;20032;-69
2024/02/10 10:26:00;;;;;;;5.22;3.40;;;12.60;96.40;;;;;;5040383;28;20116;-68
2024/02/10 10:28:25;;;;;;;3.65;2.47;;;12.60;96.40;;;;;;5042281;28;20105;-67
2024/02/10 10:30:52;;;;;;;3.55;2.22;;;12.60;96.40;;;;;;5042341;28;20040;-67
2024/02/10 10:33:20;;;;;;;3.15;2.22;;;12.70;96.20;;;;;;5043598;28;20082;-67
2024/02/10 10:35:47;;;;;;;2.47;2.03;;;12.70;96.20;;;;;;5039567;28;20025;-69
2024/02/10 10:38:14;;;;;;;2.00;1.80;;;12.80;96.20;;;;;;5042160;28;20049;-67
2024/02/10 10:40:39;;;;;;;3.13;2.28;;;12.90;96.10;;;;;;5040740;28;20039;-69
2024/02/10 10:43:07;;;;;;;3.55;2.40;;;12.90;95.90;;;;;;5040068;28;20025;-68
2024/02/10 10:45:34;;;;;;;2.97;2.10;;;13.00;95.90;;;;;;5043666;28;20031;-68
2024/02/10 10:48:02;;;;;;;2.97;2.30;;;13.00;95.70;;;;;;5039717;28;20013;-68
2024/02/10 10:50:30;;;;;;;3.17;2.38;;;13.10;95.70;;;;;;5044417;28;20025;-68
2024/02/10 10:53:06;;;;;;;3.03;2.22;;;13.10;95.60;;;;;;5044160;28;20036;-69
2024/02/10 10:55:36;;;;;;;2.97;2.33;;;13.10;95.50;;;;;;5043413;28;20791;-69
2024/02/10 10:58:04;;;;;;;3.05;1.80;;;13.20;95.50;;;;;;5042596;28;20021;-69
2024/02/10 11:00:35;;;;;;;3.40;2.20;;;13.20;95.40;;;;;;5041951;28;20013;-70
2024/02/10 11:03:02;;;;;;;3.05;1.92;;;13.10;95.20;;;;;;5043457;28;20029;-69
2024/02/10 11:05:32;;;;;;;3.22;1.90;;;13.20;95.30;;;;;;5044272;28;20024;-69
2024/02/10 11:08:01;;;;;;;3.28;2.15;;;13.20;95.30;;;;;;5040505;28;20590;-69
2024/02/10 11:10:58;;;;;;;2.75;1.90;;;13.20;95.20;;;;;;5041095;28;20025;-68
2024/02/10 11:13:26;;;;;;;3.17;1.77;;;13.20;95.10;;;;;;5043144;28;20028;-68
2024/02/10 11:16:03;;;;;;;2.70;2.08;;;13.30;95.10;;;;;;5043728;28;20033;-69
2024/02/10 11:18:29;;;;;;;3.20;1.95;;;13.30;95.10;;;;;;5042007;28;20031;-69
2024/02/10 11:21:18;;;;;;;2.17;1.70;;;13.30;94.90;;;;;;5043651;28;20037;-70
2024/02/10 11:24:05;;;;;;;1.83;1.60;;;13.30;95.00;;;;;;5043981;28;20107;-69
2024/02/10 11:26:33;;;;;;;2.83;1.67;;;13.40;94.90;;;;;;5041035;28;20107;-69
2024/02/10 11:29:06;;;;;;;3.00;1.80;;;13.40;94.60;;;;;;5042085;28;20029;-69
2024/02/10 11:31:39;;;;;;;2.15;1.80;;;13.40;94.80;;;;;;5042704;28;20755;-69
2024/02/10 11:34:11;;;;;;;2.67;1.60;;;13.50;94.70;;;;;;5046869;28;20033;-68
2024/02/10 11:36:37;;;;;;;;;;;13.50;94.70;;;;;;5046502;28;20430;-68
2024/02/10 11:39:08;;;;;;;1.70;1.48;;;13.60;94.50;;;;;;5046993;28;19916;-66
2024/02/10 11:41:39;;;;;;;2.72;2.00;;;13.60;94.50;;;;;;5048057;28;20027;-67
2024/02/10 11:44:08;;;;;;;;;;;13.50;94.40;;;;;;5045271;28;20025;-68
2024/02/10 11:46:37;;;;;;;2.33;1.92;;;13.50;94.20;;;;;;5047033;28;21356;-68
2024/02/10 11:49:03;;;;;;;2.33;1.77;;;13.50;94.30;;;;;;5045618;28;20043;-66
2024/02/10 11:51:29;;;;;;;3.13;2.35;;;13.50;94.40;;;;;;5047516;28;20029;-68
2024/02/10 11:53:58;;;;;;;2.08;1.70;;;13.60;94.40;;;;;;5045080;28;20060;-70
2024/02/10 11:56:34;;;;;;;2.58;1.80;;;13.70;94.10;;;;;;5042174;28;20117;-68
2024/02/10 11:59:03;;;;;;;2.83;1.80;;;13.60;94.10;;;;;;5050244;28;20040;-68
2024/02/10 12:01:32;;;;;;;1.95;1.67;;;13.60;94.10;;;;;;5043247;28;20033;-68
2024/02/10 12:04:05;;;;;;;2.08;1.55;;;13.60;94.10;;;;;;5051736;28;20499;-68
2024/02/10 12:06:31;;;;;;;2.58;1.52;;;13.70;94.10;;;;;;5046420;28;20025;-69
2024/02/10 12:08:58;;;;;;;2.58;1.98;;;13.80;93.90;;;;;;5048654;28;20071;-69
2024/02/10 12:11:26;;;;;;;2.75;1.95;;;13.80;93.70;;;;;;5046936;28;20017;-70
2024/02/10 12:13:53;;;;;;;2.30;1.55;;;13.80;93.70;;;;;;5044589;28;20104;-67
2024/02/10 12:16:19;;;;;;;2.00;1.67;;;13.90;93.60;;;;;;5045774;28;20029;-67
2024/02/10 12:18:48;;;;;;;2.92;1.73;;;14.00;93.40;;;;;;5044820;28;20528;-68
2024/02/10 12:21:23;;;;;;;1.60;1.50;;;14.00;93.30;;;;;;5042585;28;20052;-68
2024/02/10 12:23:50;;;;;;;2.25;1.40;;;14.10;93.30;;;;;;5046213;28;20021;-67
2024/02/10 12:26:19;;;;;;;1.50;1.40;;;14.20;93.20;;;;;;5046429;28;20039;-69
2024/02/10 12:28:47;;;;;;;2.05;1.80;;;14.30;93.10;;;;;;5047968;28;20373;-68
2024/02/10 12:31:13;;;;;;;2.35;1.80;;;14.30;92.90;;;;;;5041202;28;20131;-68
2024/02/10 12:33:42;;;;;;;3.10;1.77;;;14.20;92.90;;;;;;5045599;28;20029;-66
2024/02/10 12:36:10;;;;;;;4.70;2.80;;;14.10;92.90;;;;;;5045044;28;20052;-69
2024/02/10 12:38:36;;;;;;;3.15;2.42;;;14.00;92.90;;;;;;5044109;28;20021;-67
2024/02/10 12:41:02;;;;;;;2.03;1.63;;;13.90;93.20;;;;;;5045674;28;20025;-67
2024/02/10 12:43:27;;;;;;;2.33;1.73;;;14.00;93.30;;;;;;5046861;28;20512;-68
2024/02/10 12:45:53;;;;;;;3.20;1.80;;;14.10;93.30;;;;;;5045883;28;20106;-68
2024/02/10 12:48:19;;;;;;;3.47;1.92;;;14.10;93.20;;;;;;5045623;28;20487;-66
2024/02/10 12:50:48;;;;;;;2.83;2.00;;;14.20;93.30;;;;;;5048458;28;20032;-65